createdAt,value
2022-08-18T00:02:12.529Z,9.47
2022-08-18T00:04:46.025Z,8.90
2022-08-18T00:07:18.066Z,9.33
2022-08-18T00:09:44.643Z,9.03
2022-08-18T00:12:17.363Z,8.67
2022-08-18T00:14:44.361Z,8.83
2022-08-18T00:17:11.292Z,8.13
2022-08-18T00:19:47.673Z,8.50
2022-08-18T00:22:16.540Z,8.60
2022-08-18T00:24:48.550Z,8.00
2022-08-18T00:27:19.575Z,9.23
2022-08-18T00:29:48.410Z,8.27
2022-08-18T00:32:16.306Z,8.57
2022-08-18T00:34:43.173Z,8.90
2022-08-18T00:37:09.795Z,7.37
2022-08-18T00:39:39.172Z,8.80
2022-08-18T00:42:29.072Z,8.10
2022-08-18T00:44:58.395Z,8.57
2022-08-18T00:47:41.403Z,8.17
2022-08-18T00:50:12.504Z,8.30
2022-08-18T00:52:43.610Z,7.90
2022-08-18T00:55:11.099Z,9.37
2022-08-18T00:57:37.681Z,7.77
2022-08-18T01:00:11.978Z,8.37
2022-08-18T01:02:41.760Z,8.37
2022-08-18T01:05:14.407Z,8.23
2022-08-18T01:07:45.941Z,8.50
2022-08-18T01:10:19.842Z,8.17
2022-08-18T01:12:48.218Z,9.27
2022-08-18T01:15:29.548Z,8.53
2022-08-18T01:18:19.362Z,7.80
2022-08-18T01:21:24.734Z,8.50
2022-08-18T01:23:52.669Z,8.23
2022-08-18T01:26:19.930Z,8.00
2022-08-18T01:28:47.161Z,8.97
2022-08-18T01:31:29.390Z,7.50
2022-08-18T01:33:57.222Z,8.47
2022-08-18T01:36:23.905Z,8.13
2022-08-18T01:38:52.203Z,8.13
2022-08-18T01:41:26.441Z,6.97
2022-08-18T01:43:56.929Z,6.50
2022-08-18T01:46:23.554Z,5.97
2022-08-18T01:48:50.597Z,7.03
2022-08-18T01:51:19.676Z,5.87
2022-08-18T01:53:46.465Z,6.83
2022-08-18T01:56:13.098Z,7.07
2022-08-18T01:58:39.742Z,6.70
2022-08-18T02:01:06.295Z,6.67
2022-08-18T02:03:36.915Z,6.40
2022-08-18T02:06:05.050Z,6.93
2022-08-18T02:08:31.759Z,7.20
2022-08-18T02:11:00.061Z,6.60
2022-08-18T02:13:26.917Z,7.17
2022-08-18T02:15:53.606Z,6.00
2022-08-18T02:18:25.921Z,6.20
2022-08-18T02:21:12.223Z,6.40
2022-08-18T02:23:39.367Z,6.40
2022-08-18T02:26:10.449Z,7.17
2022-08-18T02:28:37.001Z,6.13
2022-08-18T02:31:04.599Z,6.33
2022-08-18T02:33:31.105Z,6.20
2022-08-18T02:35:57.633Z,6.80
2022-08-18T02:38:24.155Z,6.43
2022-08-18T02:40:57.839Z,6.60
2022-08-18T02:43:24.435Z,6.50
2022-08-18T02:45:51.039Z,8.03
2022-08-18T02:48:21.751Z,5.80
2022-08-18T02:50:48.416Z,6.63
2022-08-18T02:53:24.948Z,7.30
2022-08-18T02:55:51.525Z,6.27
2022-08-18T02:58:20.492Z,6.50
2022-08-18T03:00:47.517Z,6.37
2022-08-18T03:03:14.057Z,7.00
2022-08-18T03:05:40.539Z,6.60
2022-08-18T03:08:07.018Z,6.23
2022-08-18T03:10:34.258Z,6.23
2022-08-18T03:13:01.056Z,6.50
2022-08-18T03:15:27.599Z,6.60
2022-08-18T03:17:54.742Z,6.60
2022-08-18T03:20:30.830Z,5.77
2022-08-18T03:22:58.545Z,7.13
2022-08-18T03:25:25.079Z,5.57
2022-08-18T03:27:51.743Z,7.20
2022-08-18T03:30:18.388Z,5.93
2022-08-18T03:32:45.965Z,6.47
2022-08-18T03:35:14.571Z,6.03
2022-08-18T03:37:41.144Z,5.70
2022-08-18T03:40:08.056Z,6.23
2022-08-18T03:42:34.751Z,6.43
2022-08-18T03:45:01.334Z,5.27
2022-08-18T03:47:45.930Z,6.50
2022-08-18T03:50:14.161Z,6.87
2022-08-18T03:52:41.710Z,5.73
2022-08-18T03:55:08.749Z,6.17
2022-08-18T03:57:38.916Z,5.50
2022-08-18T04:00:06.302Z,6.43
2022-08-18T04:02:32.829Z,5.80
2022-08-18T04:04:59.423Z,6.60
2022-08-18T04:07:26.006Z,6.00
2022-08-18T04:09:52.494Z,5.20
2022-08-18T04:12:19.114Z,5.40
2022-08-18T04:14:48.440Z,6.33
2022-08-18T04:17:15.980Z,5.77
2022-08-18T04:19:42.801Z,5.90
2022-08-18T04:22:09.288Z,5.70
2022-08-18T04:24:36.956Z,5.93
2022-08-18T04:27:06.466Z,5.77
2022-08-18T04:29:32.980Z,5.43
2022-08-18T04:32:02.799Z,6.10
2022-08-18T04:34:29.326Z,6.50
2022-08-18T04:36:56.001Z,6.07
2022-08-18T04:39:24.003Z,6.70
2022-08-18T04:41:50.568Z,5.50
2022-08-18T04:44:18.196Z,6.23
2022-08-18T04:46:47.691Z,6.43
2022-08-18T04:49:14.723Z,6.03
2022-08-18T04:52:37.459Z,6.00
2022-08-18T04:54:29.927Z,5.70
2022-08-18T04:56:56.450Z,5.37
2022-08-18T04:59:22.999Z,5.97
2022-08-18T05:01:49.530Z,6.27
2022-08-18T05:04:17.475Z,6.27
2022-08-18T05:06:44.622Z,6.17
2022-08-18T05:09:11.886Z,7.03
2022-08-18T05:11:39.102Z,6.73
2022-08-18T05:14:07.415Z,7.20
2022-08-18T05:16:42.078Z,5.93
2022-08-18T05:19:19.293Z,6.53
2022-08-18T05:21:46.248Z,7.40
2022-08-18T05:24:16.971Z,6.80
2022-08-18T05:26:43.788Z,6.70
2022-08-18T05:29:18.396Z,6.40
2022-08-18T05:31:46.476Z,7.20
2022-08-18T05:34:13.001Z,6.53
2022-08-18T05:36:48.849Z,7.40
2022-08-18T05:39:19.019Z,7.30
2022-08-18T05:42:00.756Z,6.43
2022-08-18T05:44:30.043Z,6.10
2022-08-18T05:47:02.518Z,7.33
2022-08-18T05:49:29.143Z,6.00
2022-08-18T05:51:59.113Z,6.80
2022-08-18T05:55:02.668Z,6.03
2022-08-18T05:57:32.349Z,6.67
2022-08-18T05:59:59.227Z,6.13
2022-08-18T06:02:37.110Z,6.10
2022-08-18T06:05:07.536Z,6.40
2022-08-18T06:07:35.970Z,6.57
2022-08-18T06:10:02.927Z,5.80
2022-08-18T06:12:47.198Z,6.30
2022-08-18T06:15:32.334Z,6.60
2022-08-18T06:17:59.739Z,7.90
2022-08-18T06:20:35.525Z,6.37
2022-08-18T06:23:02.021Z,6.20
2022-08-18T06:25:47.223Z,6.30
2022-08-18T06:28:15.912Z,7.00
2022-08-18T06:30:42.539Z,6.13
2022-08-18T06:33:15.359Z,6.67
2022-08-18T06:35:44.735Z,5.80
2022-08-18T06:38:34.138Z,6.20
2022-08-18T06:41:37.991Z,6.30
2022-08-18T06:43:59.226Z,6.07
2022-08-18T06:46:41.501Z,6.80
2022-08-18T06:49:14.234Z,5.90
2022-08-18T06:51:41.063Z,6.23
2022-08-18T06:54:07.588Z,6.47
2022-08-18T06:56:40.255Z,6.57
2022-08-18T06:59:19.027Z,8.07
2022-08-18T07:01:47.563Z,7.03
2022-08-18T07:04:32.934Z,6.80
2022-08-18T07:06:59.509Z,5.90
2022-08-18T07:09:32.873Z,6.07
2022-08-18T07:11:59.458Z,7.70
2022-08-18T07:14:26.793Z,6.53
2022-08-18T07:17:06.785Z,6.30
2022-08-18T07:19:33.523Z,6.73
2022-08-18T07:22:02.468Z,6.90
2022-08-18T07:24:31.254Z,7.30
2022-08-18T07:27:00.340Z,7.20
2022-08-18T07:29:27.545Z,7.07
2022-08-18T07:31:55.051Z,7.20
2022-08-18T07:34:31.956Z,6.50
2022-08-18T07:37:01.433Z,7.10
2022-08-18T07:39:43.989Z,6.63
2022-08-18T07:42:53.572Z,6.53
2022-08-18T07:45:07.108Z,6.13
2022-08-18T07:47:49.631Z,7.00
2022-08-18T07:50:31.343Z,5.93
2022-08-18T07:53:11.893Z,6.90
2022-08-18T07:55:40.080Z,7.17
2022-08-18T07:58:15.674Z,7.07
2022-08-18T08:01:00.984Z,6.37
2022-08-18T08:03:27.606Z,7.10
2022-08-18T08:06:03.225Z,7.73
2022-08-18T08:08:35.217Z,6.60
2022-08-18T08:11:07.697Z,7.43
2022-08-18T08:13:54.622Z,7.43
2022-08-18T08:16:37.583Z,7.20
2022-08-18T08:19:42.387Z,6.80
2022-08-18T08:22:13.193Z,6.80
2022-08-18T08:24:58.696Z,7.03
2022-08-18T08:27:48.844Z,7.73
2022-08-18T08:30:18.022Z,6.70
2022-08-18T08:32:44.527Z,7.93
2022-08-18T08:35:50.064Z,6.83
2022-08-18T08:38:17.436Z,7.60
2022-08-18T08:40:55.816Z,7.17
2022-08-18T08:43:29.928Z,7.40
2022-08-18T08:46:06.816Z,7.77
2022-08-18T08:48:36.567Z,7.90
2022-08-18T08:51:18.221Z,7.60
2022-08-18T08:53:47.207Z,6.83
2022-08-18T08:56:16.201Z,7.80
2022-08-18T08:58:42.671Z,7.27
2022-08-18T09:01:13.545Z,8.60
2022-08-18T09:03:45.453Z,7.83
2022-08-18T09:06:27.430Z,8.17
2022-08-18T09:09:03.075Z,8.07
2022-08-18T09:11:48.477Z,9.20
2022-08-18T09:14:27.304Z,7.13
2022-08-18T09:17:17.172Z,7.67
2022-08-18T09:19:46.662Z,8.90
2022-08-18T09:22:32.092Z,7.87
2022-08-18T09:24:58.935Z,8.10
2022-08-18T09:27:40.019Z,8.67
2022-08-18T09:30:37.792Z,7.20
2022-08-18T09:33:18.482Z,6.80
2022-08-18T09:36:08.930Z,7.67
2022-08-18T09:38:57.338Z,7.53
2022-08-18T09:41:32.145Z,6.77
2022-08-18T09:44:17.743Z,8.30
2022-08-18T09:46:48.375Z,8.27
2022-08-18T09:49:27.137Z,7.83
2022-08-18T09:51:58.024Z,9.50
2022-08-18T09:54:27.335Z,8.43
2022-08-18T09:57:19.419Z,8.60
2022-08-18T09:59:47.719Z,8.47
2022-08-18T10:02:32.004Z,7.60
2022-08-18T10:05:14.052Z,7.33
2022-08-18T10:07:43.868Z,9.53
2022-08-18T10:10:56.968Z,8.63
2022-08-18T10:12:57.211Z,8.20
2022-08-18T10:15:33.466Z,7.40
2022-08-18T10:18:18.955Z,7.23
2022-08-18T10:20:48.595Z,8.80
2022-08-18T10:23:38.387Z,7.67
2022-08-18T10:26:32.509Z,7.67
2022-08-18T10:29:02.389Z,7.23
2022-08-18T10:31:29.735Z,7.37
2022-08-18T10:34:05.508Z,8.60
2022-08-18T10:36:47.897Z,7.40
2022-08-18T10:39:27.434Z,8.17
2022-08-18T10:42:02.481Z,7.03
2022-08-18T10:44:31.029Z,8.00
2022-08-18T10:46:59.606Z,8.80
2022-08-18T10:49:27.613Z,8.20
2022-08-18T10:52:01.431Z,7.30
2022-08-18T10:54:29.561Z,7.17
2022-08-18T10:57:10.903Z,8.07
2022-08-18T10:59:41.443Z,7.80
2022-08-18T11:02:26.809Z,8.30
2022-08-18T11:07:50.377Z,7.20
2022-08-18T11:10:57.295Z,7.07
2022-08-18T11:13:29.165Z,7.90
2022-08-18T11:16:13.471Z,6.90
2022-08-18T11:18:58.847Z,7.43
2022-08-18T11:21:25.841Z,7.37
2022-08-18T11:24:02.724Z,6.60
2022-08-18T11:26:30.679Z,6.63
2022-08-18T11:28:57.335Z,6.80
2022-08-18T11:31:24.507Z,6.20
2022-08-18T11:33:51.552Z,6.77
2022-08-18T11:36:18.167Z,7.03
2022-08-18T11:38:56.918Z,6.10
2022-08-18T11:44:20.497Z,5.80
2022-08-18T11:46:52.007Z,6.90
2022-08-18T11:52:29.593Z,7.20
2022-08-18T11:55:02.260Z,7.10
2022-08-18T11:57:53.554Z,6.23
2022-08-18T12:00:35.847Z,6.17
2022-08-18T12:03:15.640Z,6.90
2022-08-18T12:05:56.004Z,7.17
2022-08-18T12:08:51.007Z,7.30
2022-08-18T12:14:31.965Z,7.50
2022-08-18T12:17:01.533Z,6.20
2022-08-18T12:19:31.045Z,6.53
2022-08-18T12:21:59.489Z,5.93
2022-08-18T12:24:29.423Z,7.00
2022-08-18T12:27:20.619Z,6.40
2022-08-18T12:29:49.508Z,6.70
2022-08-18T12:32:17.893Z,6.73
2022-08-18T12:35:07.849Z,6.30
2022-08-18T12:40:24.423Z,6.27
2022-08-18T12:42:53.139Z,6.17
2022-08-18T12:45:23.142Z,6.60
2022-08-18T12:47:51.632Z,5.87
2022-08-18T12:50:19.332Z,5.60
2022-08-18T12:52:46.592Z,7.77
2022-08-18T12:55:21.846Z,6.13
2022-08-18T12:57:53.154Z,6.03
2022-08-18T13:00:27.711Z,5.97
2022-08-18T13:02:54.931Z,5.50
2022-08-18T13:05:26.514Z,6.37
2022-08-18T13:07:58.046Z,5.80
2022-08-18T13:10:35.555Z,6.03
2022-08-18T13:13:11.420Z,6.20
2022-08-18T13:15:38.018Z,6.20
2022-08-18T13:18:04.544Z,6.23
2022-08-18T13:20:31.235Z,6.93
2022-08-18T13:22:57.847Z,6.97
2022-08-18T13:25:32.889Z,6.70
2022-08-18T13:28:06.261Z,6.93
2022-08-18T13:30:33.100Z,7.07
2022-08-18T13:33:33.998Z,5.93
2022-08-18T13:35:52.444Z,6.33
2022-08-18T13:38:25.681Z,7.43
2022-08-18T13:40:55.283Z,6.17
2022-08-18T13:43:27.023Z,6.17
2022-08-18T13:45:55.852Z,7.33
2022-08-18T13:48:24.129Z,5.83
2022-08-18T13:50:52.823Z,6.63
2022-08-18T13:53:20.307Z,7.70
2022-08-18T13:55:47.526Z,7.20
2022-08-18T13:58:20.622Z,7.03
2022-08-18T14:00:51.643Z,7.17
2022-08-18T14:03:20.491Z,7.60
2022-08-18T14:06:07.014Z,6.60
2022-08-18T14:08:33.948Z,7.43
2022-08-18T14:11:02.224Z,7.57
2022-08-18T14:13:29.397Z,6.90
2022-08-18T14:16:05.053Z,6.80
2022-08-18T14:18:31.605Z,6.33
2022-08-18T14:21:17.023Z,6.83
2022-08-18T14:24:10.233Z,6.83
2022-08-18T14:26:50.008Z,6.43
2022-08-18T14:29:18.098Z,6.27
2022-08-18T14:32:05.271Z,5.70
2022-08-18T14:34:31.824Z,6.20
2022-08-18T14:36:58.632Z,6.30
2022-08-18T14:39:25.869Z,5.77
2022-08-18T14:41:55.854Z,5.97
2022-08-18T14:44:25.477Z,6.50
2022-08-18T14:46:58.704Z,6.17
2022-08-18T14:49:29.225Z,5.70
2022-08-18T14:51:59.858Z,6.00
2022-08-18T14:54:28.619Z,7.13
2022-08-18T14:56:57.276Z,6.60
2022-08-18T14:59:25.114Z,5.87
2022-08-18T15:01:52.425Z,5.43
2022-08-18T15:04:20.311Z,5.40
2022-08-18T15:06:55.639Z,6.70
2022-08-18T15:09:23.104Z,5.53
2022-08-18T15:11:51.139Z,5.83
2022-08-18T15:14:21.322Z,5.80
2022-08-18T15:16:53.224Z,5.90
2022-08-18T15:19:57.596Z,6.33
2022-08-18T15:22:27.832Z,5.20
2022-08-18T15:25:13.390Z,6.07
2022-08-18T15:27:42.590Z,6.10
2022-08-18T15:30:14.334Z,6.00
2022-08-18T15:32:46.928Z,4.87
2022-08-18T15:35:16.945Z,6.17
2022-08-18T15:37:44.809Z,6.27
2022-08-18T15:40:30.181Z,5.00
2022-08-18T15:43:01.904Z,6.40
2022-08-18T15:45:30.010Z,6.30
2022-08-18T15:48:02.111Z,6.60
2022-08-18T15:50:29.030Z,4.83
2022-08-18T15:52:56.123Z,5.43
2022-08-18T15:55:23.493Z,5.70
2022-08-18T15:57:56.904Z,5.90
2022-08-18T16:00:26.751Z,5.70
2022-08-18T16:02:57.164Z,5.50
2022-08-18T16:05:25.406Z,6.70
2022-08-18T16:07:52.511Z,6.03
2022-08-18T16:10:21.006Z,7.10
2022-08-18T16:12:47.987Z,7.20
2022-08-18T16:15:21.227Z,7.50
2022-08-18T16:17:49.392Z,8.30
2022-08-18T16:20:16.223Z,8.17
2022-08-18T16:22:43.427Z,7.30
2022-08-18T16:25:10.126Z,8.07
2022-08-18T16:27:37.076Z,7.80
2022-08-18T16:30:04.689Z,8.03
2022-08-18T16:32:31.661Z,8.33
2022-08-18T16:34:59.068Z,8.10
2022-08-18T16:37:27.021Z,7.47
2022-08-18T16:39:54.358Z,8.83
2022-08-18T16:42:21.376Z,8.90
2022-08-18T16:44:48.429Z,9.53
2022-08-18T16:47:18.327Z,9.43
2022-08-18T16:49:45.851Z,8.50
2022-08-18T16:52:13.619Z,10.40
2022-08-18T16:54:40.195Z,9.40
2022-08-18T16:57:06.829Z,9.90
2022-08-18T16:59:52.131Z,9.90
2022-08-18T17:02:37.532Z,10.20
2022-08-18T17:05:04.271Z,9.80
2022-08-18T17:07:31.994Z,9.80
2022-08-18T17:09:58.619Z,9.93
2022-08-18T17:12:26.238Z,9.63
2022-08-18T17:14:54.281Z,9.97
2022-08-18T17:17:20.943Z,10.80
2022-08-18T17:19:47.885Z,10.33
2022-08-18T17:22:15.283Z,10.37
2022-08-18T17:24:42.695Z,10.90
2022-08-18T17:27:18.715Z,10.70
2022-08-18T17:30:05.289Z,11.40
2022-08-18T17:32:42.181Z,10.40
2022-08-18T17:35:14.854Z,11.07
2022-08-18T17:37:49.199Z,11.53
2022-08-18T17:40:17.968Z,11.37
2022-08-18T17:42:44.544Z,10.23
2022-08-18T17:45:13.815Z,10.50
2022-08-18T17:47:54.303Z,10.90
2022-08-18T17:50:52.469Z,11.30
2022-08-18T17:53:21.336Z,10.63
2022-08-18T17:55:51.289Z,11.17
2022-08-18T17:58:25.272Z,10.93
2022-08-18T18:00:52.529Z,10.43
2022-08-18T18:03:19.259Z,11.80
2022-08-18T18:05:51.682Z,12.20
2022-08-18T18:08:18.231Z,11.53
2022-08-18T18:11:05.580Z,12.20
2022-08-18T18:13:32.978Z,11.30
2022-08-18T18:16:03.455Z,11.87
2022-08-18T18:18:45.176Z,12.43
2022-08-18T18:21:15.851Z,12.77
2022-08-18T18:23:44.089Z,12.60
2022-08-18T18:26:22.574Z,11.70
2022-08-18T18:28:50.341Z,12.80
2022-08-18T18:31:18.353Z,13.53
2022-08-18T18:33:45.180Z,13.63
2022-08-18T18:36:11.807Z,13.80
2022-08-18T18:38:45.931Z,12.93
2022-08-18T18:41:12.440Z,13.80
2022-08-18T18:43:44.674Z,13.20
2022-08-18T18:46:13.461Z,13.63
2022-08-18T18:49:00.837Z,13.23
2022-08-18T18:51:33.605Z,13.97
2022-08-18T18:54:09.279Z,13.00
2022-08-18T18:56:38.604Z,13.40
2022-08-18T18:59:13.904Z,12.13
2022-08-18T19:01:46.595Z,12.13
2022-08-18T19:04:18.520Z,13.80
2022-08-18T19:06:51.306Z,13.23
2022-08-18T19:09:50.116Z,13.83
2022-08-18T19:12:19.982Z,13.17
2022-08-18T19:14:59.872Z,13.40
2022-08-18T19:17:41.709Z,14.20
2022-08-18T19:20:37.599Z,14.30
2022-08-18T19:23:06.013Z,12.80
2022-08-18T19:25:37.162Z,15.37
2022-08-18T19:28:06.740Z,15.00
2022-08-18T19:30:34.391Z,13.87
2022-08-18T19:33:02.216Z,15.10
2022-08-18T19:35:35.553Z,13.97
2022-08-18T19:38:24.675Z,15.10
2022-08-18T19:41:11.032Z,14.40
2022-08-18T19:43:40.265Z,13.30
2022-08-18T19:46:39.570Z,12.63
2022-08-18T19:49:06.093Z,13.47
2022-08-18T19:51:34.404Z,13.10
2022-08-18T19:54:16.243Z,13.67
2022-08-18T19:56:42.808Z,14.60
2022-08-18T19:59:17.103Z,13.87
2022-08-18T20:01:49.526Z,15.80
2022-08-18T20:04:28.285Z,13.90
2022-08-18T20:07:03.609Z,14.70
2022-08-18T20:09:30.146Z,16.60
2022-08-18T20:12:01.177Z,17.53
2022-08-18T20:14:27.897Z,17.80
2022-08-18T20:17:09.680Z,19.93
2022-08-18T20:19:44.052Z,19.90
2022-08-18T20:22:26.742Z,20.27
2022-08-18T20:24:53.512Z,21.13
2022-08-18T20:27:23.118Z,20.00
2022-08-18T20:30:00.027Z,20.30
2022-08-18T20:32:32.039Z,22.00
2022-08-18T20:35:19.566Z,20.43
2022-08-18T20:37:46.147Z,19.80
2022-08-18T20:40:31.511Z,20.20
2022-08-18T20:43:07.634Z,19.67
2022-08-18T20:45:35.463Z,22.17
2022-08-18T20:48:02.022Z,22.50
2022-08-18T20:50:37.581Z,23.90
2022-08-18T20:53:09.074Z,23.93
2022-08-18T20:55:53.365Z,24.60
2022-08-18T20:58:23.576Z,26.77
2022-08-18T21:00:52.125Z,24.50
2022-08-18T21:03:22.627Z,26.97
2022-08-18T21:05:55.599Z,25.80
2022-08-18T21:08:30.000Z,25.63
2022-08-18T21:11:01.632Z,26.43
2022-08-18T21:13:40.652Z,27.73
2022-08-18T21:16:07.314Z,25.80
2022-08-18T21:18:35.066Z,26.10
2022-08-18T21:21:02.800Z,26.90
2022-08-18T21:23:33.667Z,29.40
2022-08-18T21:26:06.561Z,26.83
2022-08-18T21:28:35.327Z,28.10
2022-08-18T21:31:41.616Z,27.83
2022-08-18T21:33:54.427Z,29.67
2022-08-18T21:36:23.374Z,30.07
2022-08-18T21:38:56.820Z,32.40
2022-08-18T21:41:33.630Z,23.47
2022-08-18T21:44:07.307Z,29.97
2022-08-18T21:46:33.969Z,29.97
2022-08-18T21:49:03.418Z,29.40
2022-08-18T21:51:31.856Z,27.20
2022-08-18T21:54:01.705Z,29.53
2022-08-18T21:56:32.291Z,26.10
2022-08-18T21:59:07.995Z,26.13
2022-08-18T22:01:35.505Z,26.60
2022-08-18T22:04:02.983Z,28.73
2022-08-18T22:06:32.594Z,24.70
2022-08-18T22:09:21.249Z,23.27
2022-08-18T22:12:06.256Z,23.40
2022-08-18T22:14:54.682Z,23.60
2022-08-18T22:17:25.295Z,21.60
2022-08-18T22:19:51.833Z,24.87
2022-08-18T22:22:38.725Z,23.97
2022-08-18T22:25:06.108Z,22.27
2022-08-18T22:27:32.750Z,23.03
2022-08-18T22:30:06.704Z,22.00
2022-08-18T22:32:35.537Z,23.77
2022-08-18T22:35:02.778Z,23.50
2022-08-18T22:37:32.462Z,23.80
2022-08-18T22:39:59.043Z,23.87
2022-08-18T22:42:27.444Z,25.10
2022-08-18T22:44:54.143Z,27.43
2022-08-18T22:47:20.835Z,25.70
2022-08-18T22:49:47.538Z,25.60
2022-08-18T22:52:17.654Z,26.17
2022-08-18T22:54:44.312Z,27.97
2022-08-18T22:57:10.890Z,29.17
2022-08-18T22:59:37.625Z,30.17
2022-08-18T23:02:10.566Z,28.90
2022-08-18T23:04:37.116Z,30.40
2022-08-18T23:07:03.666Z,30.57
2022-08-18T23:09:31.540Z,30.10
2022-08-18T23:12:00.791Z,30.27
2022-08-18T23:14:28.276Z,29.53
2022-08-18T23:16:54.839Z,31.30
2022-08-18T23:19:21.517Z,32.90
2022-08-18T23:21:48.651Z,32.00
2022-08-18T23:24:16.001Z,31.53
2022-08-18T23:26:42.529Z,32.70
2022-08-18T23:29:11.589Z,32.47
2022-08-18T23:31:39.988Z,28.80
2022-08-18T23:34:06.514Z,29.20
2022-08-18T23:36:33.565Z,28.40
2022-08-18T23:39:00.698Z,28.10
2022-08-18T23:41:27.464Z,26.57
2022-08-18T23:43:54.037Z,28.17
2022-08-18T23:46:22.251Z,27.77
2022-08-18T23:48:50.746Z,28.43
2022-08-18T23:51:35.101Z,29.50
2022-08-18T23:54:03.240Z,29.83
2022-08-18T23:56:30.593Z,30.27
2022-08-18T23:58:57.515Z,31.57
